createdAt,value
2022-08-29T00:00:59.576Z,12.75
2022-08-29T00:01:59.555Z,12.80
2022-08-29T00:02:59.513Z,12.70
2022-08-29T00:03:59.549Z,12.65
2022-08-29T00:04:59.500Z,12.67
2022-08-29T00:05:59.494Z,12.61
2022-08-29T00:07:00.137Z,12.58
2022-08-29T00:07:59.470Z,12.60
2022-08-29T00:08:59.472Z,12.53
2022-08-29T00:09:59.461Z,12.54
2022-08-29T00:10:59.448Z,12.43
2022-08-29T00:11:59.445Z,12.46
2022-08-29T00:12:59.431Z,12.36
2022-08-29T00:13:59.432Z,12.42
2022-08-29T00:14:59.419Z,12.32
2022-08-29T00:15:59.409Z,12.36
2022-08-29T00:16:59.462Z,12.32
2022-08-29T00:17:59.387Z,12.32
2022-08-29T00:19:00.390Z,12.31
2022-08-29T00:19:59.393Z,12.40
2022-08-29T00:20:59.372Z,12.32
2022-08-29T00:21:59.381Z,12.35
2022-08-29T00:22:59.362Z,12.28
2022-08-29T00:23:59.343Z,12.28
2022-08-29T00:24:59.329Z,12.27
2022-08-29T00:26:00.327Z,12.35
2022-08-29T00:26:59.320Z,12.25
2022-08-29T00:27:59.321Z,12.35
2022-08-29T00:28:59.311Z,12.29
2022-08-29T00:29:59.305Z,12.20
2022-08-29T00:32:00.020Z,12.22
2022-08-29T00:32:59.962Z,12.29
2022-08-29T00:33:59.946Z,12.22
2022-08-29T00:34:59.942Z,12.20
2022-08-29T00:35:59.935Z,12.29
2022-08-29T00:36:59.930Z,12.22
2022-08-29T00:37:59.927Z,12.17
2022-08-29T00:38:59.911Z,12.25
2022-08-29T00:39:59.955Z,12.24
2022-08-29T00:40:59.889Z,12.22
2022-08-29T00:41:59.881Z,12.22
2022-08-29T00:42:59.885Z,12.22
2022-08-29T00:43:59.869Z,12.21
2022-08-29T00:44:59.867Z,12.28
2022-08-29T00:45:59.897Z,12.24
2022-08-29T00:46:59.863Z,12.18
2022-08-29T00:47:59.832Z,12.15
2022-08-29T00:48:59.824Z,12.15
2022-08-29T00:49:59.817Z,12.06
2022-08-29T00:50:59.806Z,12.10
2022-08-29T00:51:59.805Z,12.07
2022-08-29T00:53:00.892Z,12.03
2022-08-29T00:54:00.880Z,12.07
2022-08-29T00:55:00.874Z,12.06
2022-08-29T00:56:00.868Z,12.10
2022-08-29T00:57:00.849Z,11.99
2022-08-29T00:58:00.869Z,12.02
2022-08-29T00:59:00.841Z,11.97
2022-08-29T01:00:00.833Z,11.97
2022-08-29T01:01:00.869Z,12.06
2022-08-29T01:02:00.881Z,11.94
2022-08-29T01:03:00.811Z,11.91
2022-08-29T01:04:00.800Z,12.02
2022-08-29T01:05:00.786Z,11.97
2022-08-29T01:06:00.778Z,11.91
2022-08-29T01:07:00.770Z,12.04
2022-08-29T01:08:00.778Z,12.09
2022-08-29T01:09:00.767Z,11.97
2022-08-29T01:10:00.744Z,11.86
2022-08-29T01:11:01.740Z,12.02
2022-08-29T01:12:00.731Z,12.00
2022-08-29T01:13:00.737Z,11.81
2022-08-29T01:14:00.715Z,11.78
2022-08-29T01:15:00.718Z,11.77
2022-08-29T01:16:00.750Z,11.80
2022-08-29T01:17:00.687Z,11.75
2022-08-29T01:18:00.689Z,11.77
2022-08-29T01:19:00.670Z,11.65
2022-08-29T01:20:00.680Z,11.78
2022-08-29T01:21:00.656Z,11.60
2022-08-29T01:22:00.656Z,11.70
2022-08-29T01:23:00.642Z,11.70
2022-08-29T01:24:00.648Z,11.75
2022-08-29T01:25:00.623Z,11.66
2022-08-29T01:26:00.610Z,11.65
2022-08-29T01:27:00.610Z,11.63
2022-08-29T01:28:00.604Z,11.63
2022-08-29T01:29:00.589Z,11.65
2022-08-29T01:30:01.577Z,11.55
2022-08-29T01:31:00.586Z,11.59
2022-08-29T01:32:00.603Z,11.63
2022-08-29T01:33:00.562Z,11.54
2022-08-29T01:34:00.554Z,11.54
2022-08-29T01:35:00.540Z,11.51
2022-08-29T01:36:00.532Z,11.51
2022-08-29T01:37:00.530Z,11.52
2022-08-29T01:38:00.515Z,11.48
2022-08-29T01:39:01.417Z,11.50
2022-08-29T01:40:01.494Z,11.50
2022-08-29T01:41:00.529Z,11.47
2022-08-29T01:42:00.492Z,11.43
2022-08-29T01:43:00.478Z,11.37
2022-08-29T01:44:00.487Z,11.45
2022-08-29T01:45:00.464Z,11.37
2022-08-29T01:46:00.512Z,11.37
2022-08-29T01:47:03.015Z,11.30
2022-08-29T01:48:03.548Z,11.33
2022-08-29T01:49:01.446Z,11.32
2022-08-29T01:50:00.428Z,11.33
2022-08-29T01:51:00.425Z,11.35
2022-08-29T01:52:00.410Z,11.36
2022-08-29T01:53:00.426Z,11.37
2022-08-29T01:54:00.383Z,11.18
2022-08-29T01:55:00.374Z,11.29
2022-08-29T01:56:00.375Z,11.30
2022-08-29T01:57:00.357Z,11.19
2022-08-29T01:58:00.358Z,11.19
2022-08-29T01:59:00.357Z,11.18
2022-08-29T02:00:00.340Z,11.12
2022-08-29T02:01:00.364Z,11.08
2022-08-29T02:02:00.373Z,11.04
2022-08-29T02:03:00.311Z,10.94
2022-08-29T02:04:00.297Z,10.97
2022-08-29T02:05:00.293Z,10.93
2022-08-29T02:06:00.279Z,10.94
2022-08-29T02:07:00.269Z,10.89
2022-08-29T02:08:00.265Z,10.84
2022-08-29T02:09:00.246Z,10.94
2022-08-29T02:10:01.260Z,10.87
2022-08-29T02:11:00.254Z,10.89
2022-08-29T02:12:00.238Z,10.86
2022-08-29T02:13:00.239Z,10.82
2022-08-29T02:14:00.216Z,10.92
2022-08-29T02:15:00.220Z,10.89
2022-08-29T02:16:00.256Z,10.89
2022-08-29T02:17:01.211Z,10.94
2022-08-29T02:18:00.192Z,10.92
2022-08-29T02:19:00.177Z,10.92
2022-08-29T02:20:00.205Z,10.97
2022-08-29T02:21:00.164Z,11.00
2022-08-29T02:22:00.165Z,11.04
2022-08-29T02:23:00.149Z,10.96
2022-08-29T02:24:11.256Z,11.02
2022-08-29T02:25:01.123Z,11.08
2022-08-29T02:26:00.931Z,11.11
2022-08-29T02:27:00.123Z,11.00
2022-08-29T02:28:00.103Z,11.05
2022-08-29T02:29:00.101Z,11.05
2022-08-29T02:30:01.093Z,11.05
2022-08-29T02:31:00.107Z,11.00
2022-08-29T02:32:00.920Z,10.89
2022-08-29T02:33:00.077Z,10.90
2022-08-29T02:34:00.058Z,10.86
2022-08-29T02:35:00.083Z,10.92
2022-08-29T02:36:00.055Z,10.92
2022-08-29T02:37:00.037Z,10.89
2022-08-29T02:38:00.033Z,10.86
2022-08-29T02:39:00.018Z,10.79
2022-08-29T02:40:00.048Z,10.94
2022-08-29T02:41:00.007Z,10.84
2022-08-29T02:42:00.007Z,10.79
2022-08-29T02:42:59.997Z,10.67
2022-08-29T02:43:59.972Z,10.82
2022-08-29T02:44:59.969Z,10.68
2022-08-29T02:45:59.957Z,10.74
2022-08-29T02:47:00.031Z,10.68
2022-08-29T02:47:59.940Z,10.72
2022-08-29T02:49:01.314Z,10.74
2022-08-29T02:49:59.981Z,10.64
2022-08-29T02:50:59.915Z,10.56
2022-08-29T02:51:59.934Z,10.61
2022-08-29T02:52:59.915Z,10.69
2022-08-29T02:53:59.892Z,10.68
2022-08-29T02:54:59.909Z,10.67
2022-08-29T02:55:59.873Z,10.68
2022-08-29T02:56:59.866Z,10.61
2022-08-29T02:57:59.866Z,10.69
2022-08-29T02:58:59.887Z,10.63
2022-08-29T02:59:59.857Z,10.64
2022-08-29T03:00:59.920Z,10.76
2022-08-29T03:01:59.921Z,10.67
2022-08-29T03:02:59.833Z,10.64
2022-08-29T03:03:59.855Z,10.61
2022-08-29T03:04:59.800Z,10.59
2022-08-29T03:05:59.809Z,10.56
2022-08-29T03:06:59.806Z,10.63
2022-08-29T03:07:59.778Z,10.63
2022-08-29T03:08:59.785Z,10.59
2022-08-29T03:09:59.758Z,10.49
2022-08-29T03:10:59.766Z,10.53
2022-08-29T03:11:59.743Z,10.61
2022-08-29T03:12:59.738Z,10.61
2022-08-29T03:13:59.734Z,10.53
2022-08-29T03:14:59.721Z,10.57
2022-08-29T03:15:59.799Z,10.56
2022-08-29T03:16:59.703Z,10.54
2022-08-29T03:17:59.702Z,10.63
2022-08-29T03:19:00.434Z,10.67
2022-08-29T03:19:59.685Z,10.61
2022-08-29T03:20:59.684Z,10.68
2022-08-29T03:21:59.675Z,10.63
2022-08-29T03:22:59.664Z,10.71
2022-08-29T03:23:59.652Z,10.71
2022-08-29T03:24:59.641Z,10.71
2022-08-29T03:25:59.636Z,10.71
2022-08-29T03:26:59.626Z,10.69
2022-08-29T03:27:59.644Z,10.78
2022-08-29T03:28:59.616Z,10.72
2022-08-29T03:29:59.603Z,10.68
2022-08-29T03:30:59.673Z,10.53
2022-08-29T03:32:00.440Z,10.64
2022-08-29T03:32:59.591Z,10.60
2022-08-29T03:33:59.573Z,10.60
2022-08-29T03:34:59.563Z,10.68
2022-08-29T03:35:59.549Z,10.57
2022-08-29T03:36:59.576Z,10.48
2022-08-29T03:37:59.539Z,10.63
2022-08-29T03:38:59.521Z,10.53
2022-08-29T03:39:59.572Z,10.54
2022-08-29T03:40:59.520Z,10.41
2022-08-29T03:41:59.500Z,10.51
2022-08-29T03:42:59.493Z,10.41
2022-08-29T03:43:59.480Z,10.38
2022-08-29T03:44:59.533Z,10.37
2022-08-29T03:45:59.464Z,10.41
2022-08-29T03:46:59.542Z,10.33
2022-08-29T03:47:59.449Z,10.37
2022-08-29T03:48:59.444Z,10.37
2022-08-29T03:49:59.441Z,10.40
2022-08-29T03:50:59.421Z,10.30
2022-08-29T03:51:59.419Z,10.33
2022-08-29T03:52:59.453Z,10.37
2022-08-29T03:53:59.406Z,10.37
2022-08-29T03:54:59.405Z,10.35
2022-08-29T03:55:59.390Z,10.37
2022-08-29T03:56:59.374Z,10.34
2022-08-29T03:57:59.376Z,10.35
2022-08-29T03:58:59.368Z,10.34
2022-08-29T03:59:59.373Z,10.38
2022-08-29T04:00:59.367Z,10.25
2022-08-29T04:01:59.372Z,10.28
2022-08-29T04:02:59.391Z,10.28
2022-08-29T04:03:59.320Z,10.25
2022-08-29T04:04:59.323Z,10.23
2022-08-29T04:05:59.306Z,10.16
2022-08-29T04:06:59.303Z,10.20
2022-08-29T04:07:59.293Z,10.17
2022-08-29T04:08:59.290Z,10.17
2022-08-29T04:09:59.283Z,10.15
2022-08-29T04:10:59.271Z,10.15
2022-08-29T04:11:59.277Z,10.13
2022-08-29T04:12:59.263Z,10.13
2022-08-29T04:13:59.872Z,10.15
2022-08-29T04:14:59.234Z,10.19
2022-08-29T04:15:59.256Z,10.17
2022-08-29T04:16:59.978Z,10.20
2022-08-29T04:17:59.208Z,10.15
2022-08-29T04:18:59.477Z,10.17
2022-08-29T04:21:05.466Z,10.16
2022-08-29T04:22:05.465Z,10.15
2022-08-29T04:23:05.457Z,10.15
2022-08-29T04:24:05.441Z,10.20
2022-08-29T04:25:05.434Z,10.10
2022-08-29T04:26:28.944Z,10.16
2022-08-29T04:27:06.424Z,10.22
2022-08-29T04:28:05.411Z,10.23
2022-08-29T04:29:05.401Z,10.20
2022-08-29T04:30:05.400Z,10.22
2022-08-29T04:31:05.413Z,10.20
2022-08-29T04:32:05.381Z,10.30
2022-08-29T04:33:05.373Z,10.30
2022-08-29T04:34:05.360Z,10.26
2022-08-29T04:35:05.361Z,10.33
2022-08-29T04:36:05.339Z,10.34
2022-08-29T04:37:05.341Z,10.33
2022-08-29T04:38:05.330Z,10.35
2022-08-29T04:39:05.317Z,10.37
2022-08-29T04:40:05.375Z,10.54
2022-08-29T04:41:05.300Z,10.57
2022-08-29T04:42:06.385Z,10.42
2022-08-29T04:43:06.387Z,10.35
2022-08-29T04:44:06.375Z,10.30
2022-08-29T04:45:06.546Z,10.41
2022-08-29T04:46:07.873Z,10.28
2022-08-29T04:47:07.351Z,10.26
2022-08-29T04:48:06.349Z,10.31
2022-08-29T04:49:06.354Z,10.31
2022-08-29T04:50:06.326Z,10.37
2022-08-29T04:51:06.321Z,10.28
2022-08-29T04:52:06.318Z,10.34
2022-08-29T04:53:06.314Z,10.44
2022-08-29T04:54:06.308Z,10.41
2022-08-29T04:55:06.281Z,10.38
2022-08-29T04:56:06.296Z,10.44
2022-08-29T04:57:06.268Z,10.48
2022-08-29T04:58:06.275Z,10.59
2022-08-29T04:59:06.253Z,10.53
2022-08-29T05:00:06.256Z,10.59
2022-08-29T05:01:06.243Z,10.63
2022-08-29T05:02:06.288Z,10.69
2022-08-29T05:03:06.297Z,10.75
2022-08-29T05:04:06.221Z,10.76
2022-08-29T05:05:06.910Z,10.76
2022-08-29T05:06:06.210Z,10.90
2022-08-29T05:07:06.203Z,11.07
2022-08-29T05:08:06.203Z,11.15
2022-08-29T05:09:06.168Z,11.32
2022-08-29T05:10:06.161Z,11.40
2022-08-29T05:11:06.149Z,11.65
2022-08-29T05:12:10.144Z,11.73
2022-08-29T05:13:07.154Z,11.84
2022-08-29T05:14:06.131Z,11.95
2022-08-29T05:15:06.120Z,12.17
2022-08-29T05:16:06.191Z,12.24
2022-08-29T05:17:06.106Z,12.37
2022-08-29T05:18:06.088Z,12.35
2022-08-29T05:19:06.093Z,12.55
2022-08-29T05:20:06.074Z,12.60
2022-08-29T05:21:06.066Z,12.70
2022-08-29T05:22:06.058Z,12.86
2022-08-29T05:23:06.054Z,13.01
2022-08-29T05:24:06.041Z,13.08
2022-08-29T05:25:06.027Z,13.08
2022-08-29T05:26:06.033Z,13.05
2022-08-29T05:27:06.041Z,13.09
2022-08-29T05:28:06.063Z,13.13
2022-08-29T05:29:08.390Z,13.30
2022-08-29T05:30:05.993Z,13.49
2022-08-29T05:31:06.027Z,13.57
2022-08-29T05:32:05.985Z,13.74
2022-08-29T05:33:05.975Z,13.77
2022-08-29T05:34:21.906Z,13.90
2022-08-29T05:35:06.948Z,13.90
2022-08-29T05:36:05.945Z,14.18
2022-08-29T05:37:05.937Z,14.25
2022-08-29T05:38:09.028Z,14.60
2022-08-29T05:39:06.927Z,14.78
2022-08-29T05:40:05.972Z,15.04
2022-08-29T05:41:05.910Z,15.10
2022-08-29T05:42:05.904Z,15.25
2022-08-29T05:43:05.891Z,15.21
2022-08-29T05:44:05.887Z,15.15
2022-08-29T05:45:05.889Z,15.21
2022-08-29T05:46:05.905Z,15.17
2022-08-29T05:47:05.852Z,15.18
2022-08-29T05:48:06.850Z,15.15
2022-08-29T05:49:05.845Z,15.17
2022-08-29T05:50:05.844Z,15.25
2022-08-29T05:51:05.817Z,15.44
2022-08-29T05:52:05.817Z,15.51
2022-08-29T05:53:05.803Z,15.84
2022-08-29T05:54:05.794Z,15.90
2022-08-29T05:55:05.791Z,15.92
2022-08-29T05:56:05.775Z,15.94
2022-08-29T05:57:05.809Z,16.16
2022-08-29T05:58:05.772Z,16.17
2022-08-29T05:59:05.764Z,16.35
2022-08-29T06:00:05.742Z,16.56
2022-08-29T06:01:05.730Z,16.58
2022-08-29T06:02:05.730Z,16.57
2022-08-29T06:03:05.856Z,16.69
2022-08-29T06:04:05.842Z,17.01
2022-08-29T06:05:05.704Z,17.16
2022-08-29T06:06:05.697Z,17.44
2022-08-29T06:07:05.705Z,17.39
2022-08-29T06:08:05.675Z,17.52
2022-08-29T06:09:05.678Z,17.59
2022-08-29T06:10:05.655Z,17.60
2022-08-29T06:11:06.741Z,17.46
2022-08-29T06:12:05.659Z,17.38
2022-08-29T06:13:06.565Z,17.41
2022-08-29T06:14:05.630Z,17.34
2022-08-29T06:15:05.630Z,17.30
2022-08-29T06:16:05.708Z,17.46
2022-08-29T06:17:05.615Z,17.65
2022-08-29T06:18:05.620Z,17.60
2022-08-29T06:19:05.584Z,17.68
2022-08-29T06:20:05.591Z,17.72
2022-08-29T06:21:05.576Z,17.76
2022-08-29T06:22:09.608Z,17.80
2022-08-29T06:23:05.557Z,17.90
2022-08-29T06:24:05.555Z,18.00
2022-08-29T06:25:28.065Z,18.03
2022-08-29T06:26:07.541Z,18.26
2022-08-29T06:27:05.524Z,18.49
2022-08-29T06:28:05.524Z,18.55
2022-08-29T06:29:05.510Z,18.74
2022-08-29T06:30:05.497Z,18.81
2022-08-29T06:31:05.575Z,19.02
2022-08-29T06:32:05.479Z,19.11
2022-08-29T06:33:05.490Z,19.51
2022-08-29T06:34:05.505Z,19.51
2022-08-29T06:35:05.585Z,19.62
2022-08-29T06:36:05.545Z,19.55
2022-08-29T06:37:05.474Z,19.69
2022-08-29T06:38:05.445Z,19.69
2022-08-29T06:39:05.454Z,19.82
2022-08-29T06:40:07.422Z,19.99
2022-08-29T06:41:05.422Z,19.91
2022-08-29T06:42:05.412Z,19.92
2022-08-29T06:43:05.403Z,20.04
2022-08-29T06:44:05.399Z,19.82
2022-08-29T06:45:05.382Z,19.81
2022-08-29T06:46:05.386Z,19.81
2022-08-29T06:47:05.374Z,19.89
2022-08-29T06:48:05.366Z,19.84
2022-08-29T06:49:05.374Z,19.86
2022-08-29T06:50:05.348Z,19.71
2022-08-29T06:51:05.337Z,19.77
2022-08-29T06:52:05.341Z,19.89
2022-08-29T06:53:26.472Z,19.99
2022-08-29T06:54:07.377Z,20.02
2022-08-29T06:55:05.305Z,20.07
2022-08-29T06:56:05.443Z,20.11
2022-08-29T06:57:05.287Z,20.04
2022-08-29T06:58:05.280Z,19.89
2022-08-29T06:59:05.285Z,20.03
2022-08-29T07:00:12.467Z,20.13
2022-08-29T07:01:06.345Z,20.21
2022-08-29T07:02:05.950Z,20.09
2022-08-29T07:03:05.295Z,20.11
2022-08-29T07:04:05.243Z,20.06
2022-08-29T07:05:06.245Z,19.94
2022-08-29T07:06:05.225Z,20.09
2022-08-29T07:07:05.234Z,20.11
2022-08-29T07:08:05.219Z,20.16
2022-08-29T07:09:05.222Z,20.07
2022-08-29T07:10:05.199Z,20.04
2022-08-29T07:11:05.185Z,20.03
2022-08-29T07:12:05.178Z,20.09
2022-08-29T07:13:05.195Z,20.29
2022-08-29T07:14:05.171Z,20.31
2022-08-29T07:15:05.165Z,19.99
2022-08-29T07:16:05.187Z,19.49
2022-08-29T07:17:05.144Z,19.11
2022-08-29T07:18:05.175Z,18.73
2022-08-29T07:19:05.118Z,18.55
2022-08-29T07:20:05.111Z,18.52
2022-08-29T07:21:05.113Z,18.63
2022-08-29T07:22:05.108Z,18.60
2022-08-29T07:23:05.087Z,18.77
2022-08-29T07:24:05.088Z,18.83
2022-08-29T07:25:05.091Z,19.24
2022-08-29T07:26:05.063Z,19.52
2022-08-29T07:27:05.065Z,19.73
2022-08-29T07:28:05.067Z,19.88
2022-08-29T07:29:05.060Z,20.03
2022-08-29T07:30:05.047Z,19.99
2022-08-29T07:31:05.107Z,19.84
2022-08-29T07:32:05.027Z,19.73
2022-08-29T07:33:05.023Z,19.59
2022-08-29T07:34:05.050Z,19.51
2022-08-29T07:35:04.994Z,19.33
2022-08-29T07:36:04.997Z,18.96
2022-08-29T07:37:05.836Z,18.89
2022-08-29T07:38:05.993Z,18.93
2022-08-29T07:39:04.964Z,19.16
2022-08-29T07:40:04.999Z,19.21
2022-08-29T07:41:04.963Z,19.31
2022-08-29T07:42:04.949Z,19.33
2022-08-29T07:43:04.939Z,19.58
2022-08-29T07:44:04.928Z,19.58
2022-08-29T07:45:04.924Z,19.82
2022-08-29T07:46:05.532Z,19.96
2022-08-29T07:47:04.904Z,19.77
2022-08-29T07:48:04.925Z,19.74
2022-08-29T07:49:05.892Z,19.79
2022-08-29T07:50:04.893Z,19.77
2022-08-29T07:51:08.431Z,19.82
2022-08-29T07:52:06.872Z,19.84
2022-08-29T07:53:04.871Z,19.70
2022-08-29T07:54:04.855Z,19.45
2022-08-29T07:55:04.851Z,19.26
2022-08-29T07:56:04.831Z,19.04
2022-08-29T07:57:04.844Z,18.95
2022-08-29T07:58:04.824Z,19.12
2022-08-29T07:59:04.811Z,19.29
2022-08-29T08:00:05.389Z,19.48
2022-08-29T08:01:04.889Z,19.47
2022-08-29T08:02:04.869Z,19.45
2022-08-29T08:03:04.886Z,19.56
2022-08-29T08:04:04.769Z,19.62
2022-08-29T08:05:06.916Z,19.45
2022-08-29T08:06:07.083Z,19.40
2022-08-29T08:07:04.741Z,19.34
2022-08-29T08:08:09.025Z,19.22
2022-08-29T08:09:06.744Z,19.21
2022-08-29T08:10:04.727Z,19.21
2022-08-29T08:11:04.721Z,19.22
2022-08-29T08:12:08.171Z,19.31
2022-08-29T08:13:05.728Z,19.30
2022-08-29T08:14:04.700Z,19.36
2022-08-29T08:15:04.678Z,19.49
2022-08-29T08:16:04.691Z,19.40
2022-08-29T08:17:04.688Z,19.18
2022-08-29T08:18:04.669Z,18.99
2022-08-29T08:19:04.648Z,18.96
2022-08-29T08:20:04.638Z,18.92
2022-08-29T08:21:04.644Z,18.80
2022-08-29T08:22:04.623Z,19.04
2022-08-29T08:23:04.675Z,19.18
2022-08-29T08:24:04.617Z,19.04
2022-08-29T08:25:04.596Z,18.93
2022-08-29T08:26:04.593Z,19.07
2022-08-29T08:27:05.585Z,19.02
2022-08-29T08:28:04.579Z,18.86
2022-08-29T08:29:04.592Z,18.92
2022-08-29T08:30:04.565Z,18.84
2022-08-29T08:31:06.274Z,18.95
2022-08-29T08:32:05.542Z,19.02
2022-08-29T08:33:04.532Z,19.33
2022-08-29T08:34:04.531Z,19.48
2022-08-29T08:35:04.520Z,19.55
2022-08-29T08:36:04.512Z,19.44
2022-08-29T08:37:04.503Z,19.18
2022-08-29T08:38:04.494Z,19.12
2022-08-29T08:39:04.486Z,19.19
2022-08-29T08:40:05.563Z,19.12
2022-08-29T08:41:04.989Z,19.29
2022-08-29T08:42:04.476Z,19.33
2022-08-29T08:43:04.446Z,19.39
2022-08-29T08:44:04.447Z,19.44
2022-08-29T08:45:04.437Z,19.49
2022-08-29T08:46:04.475Z,19.62
2022-08-29T08:47:04.435Z,19.63
2022-08-29T08:48:04.419Z,19.58
2022-08-29T08:49:04.408Z,19.77
2022-08-29T08:50:04.389Z,19.71
2022-08-29T08:51:04.381Z,19.79
2022-08-29T08:52:04.376Z,19.67
2022-08-29T08:53:04.389Z,19.74
2022-08-29T08:54:04.360Z,19.81
2022-08-29T08:55:04.358Z,19.91
2022-08-29T08:56:04.343Z,19.79
2022-08-29T08:57:04.357Z,19.63
2022-08-29T08:58:04.327Z,19.76
2022-08-29T08:59:04.315Z,19.67
2022-08-29T09:00:04.320Z,19.55
2022-08-29T09:01:04.378Z,19.64
2022-08-29T09:02:06.753Z,19.67
2022-08-29T09:03:04.284Z,19.51
2022-08-29T09:04:04.278Z,19.66
2022-08-29T09:05:04.266Z,19.48
2022-08-29T09:06:04.263Z,19.39
2022-08-29T09:07:04.266Z,19.26
2022-08-29T09:08:04.244Z,19.33
2022-08-29T09:09:04.235Z,19.40
2022-08-29T09:10:04.223Z,19.40
2022-08-29T09:11:04.220Z,19.40
2022-08-29T09:12:04.219Z,19.34
2022-08-29T09:13:04.207Z,19.52
2022-08-29T09:14:04.192Z,19.63
2022-08-29T09:15:04.175Z,19.71
2022-08-29T09:16:04.193Z,19.77
2022-08-29T09:17:04.163Z,19.76
2022-08-29T09:18:04.161Z,19.89
2022-08-29T09:19:04.148Z,19.79
2022-08-29T09:20:04.136Z,19.66
2022-08-29T09:21:10.075Z,19.79
2022-08-29T09:22:05.115Z,19.86
2022-08-29T09:23:04.118Z,19.89
2022-08-29T09:24:04.104Z,19.81
2022-08-29T09:25:04.101Z,19.92
2022-08-29T09:26:04.097Z,19.96
2022-08-29T09:27:04.081Z,20.02
2022-08-29T09:28:04.090Z,20.14
2022-08-29T09:29:04.069Z,20.21
2022-08-29T09:30:04.065Z,20.31
2022-08-29T09:31:04.061Z,20.36
2022-08-29T09:32:04.103Z,20.34
2022-08-29T09:33:04.183Z,20.34
2022-08-29T09:34:04.089Z,20.39
2022-08-29T09:35:08.794Z,20.39
2022-08-29T09:36:05.021Z,20.41
2022-08-29T09:37:04.007Z,20.41
2022-08-29T09:38:04.001Z,20.51
2022-08-29T09:39:03.991Z,20.63
2022-08-29T09:40:04.029Z,20.87
2022-08-29T09:41:03.981Z,20.87
2022-08-29T09:42:03.958Z,20.90
2022-08-29T09:43:03.951Z,20.93
2022-08-29T09:44:03.949Z,20.88
2022-08-29T09:45:03.947Z,21.00
2022-08-29T09:46:04.014Z,21.09
2022-08-29T09:47:03.931Z,21.00
2022-08-29T09:48:03.916Z,21.03
2022-08-29T09:49:03.907Z,21.09
2022-08-29T09:50:03.918Z,21.14
2022-08-29T09:51:04.518Z,21.27
2022-08-29T09:52:03.913Z,21.33
2022-08-29T09:53:05.754Z,21.25
2022-08-29T09:54:04.877Z,21.30
2022-08-29T09:55:03.900Z,21.46
2022-08-29T09:56:03.845Z,21.54
2022-08-29T09:57:03.876Z,21.80
2022-08-29T09:58:03.843Z,22.06
2022-08-29T09:59:03.829Z,22.17
2022-08-29T10:00:03.815Z,22.36
2022-08-29T10:01:04.486Z,22.45
2022-08-29T10:02:03.881Z,22.43
2022-08-29T10:03:03.825Z,22.55
2022-08-29T10:04:03.826Z,22.38
2022-08-29T10:05:03.781Z,22.47
2022-08-29T10:06:03.769Z,22.45
2022-08-29T10:07:03.819Z,22.53
2022-08-29T10:08:36.956Z,22.59
2022-08-29T10:09:03.737Z,22.36
2022-08-29T10:10:04.744Z,22.26
2022-08-29T10:11:03.727Z,22.06
2022-08-29T10:12:03.727Z,21.93
2022-08-29T10:13:03.707Z,21.91
2022-08-29T10:14:03.709Z,21.61
2022-08-29T10:15:03.720Z,21.67
2022-08-29T10:16:03.708Z,21.69
2022-08-29T10:17:03.737Z,21.61
2022-08-29T10:18:03.669Z,21.69
2022-08-29T10:19:03.664Z,21.77
2022-08-29T10:20:03.673Z,21.89
2022-08-29T10:21:03.656Z,21.98
2022-08-29T10:22:03.640Z,21.92
2022-08-29T10:23:03.627Z,21.85
2022-08-29T10:24:03.653Z,21.99
2022-08-29T10:25:03.613Z,22.14
2022-08-29T10:26:03.602Z,22.13
2022-08-29T10:27:03.611Z,22.15
2022-08-29T10:28:03.597Z,22.29
2022-08-29T10:29:03.593Z,22.14
2022-08-29T10:30:03.593Z,22.11
2022-08-29T10:31:03.561Z,22.10
2022-08-29T10:32:03.590Z,22.07
2022-08-29T10:33:03.549Z,22.14
2022-08-29T10:34:03.539Z,22.00
2022-08-29T10:35:03.538Z,22.00
2022-08-29T10:36:03.545Z,22.08
2022-08-29T10:37:03.515Z,22.04
2022-08-29T10:38:03.531Z,21.98
2022-08-29T10:39:03.504Z,22.06
2022-08-29T10:40:03.567Z,21.89
2022-08-29T10:41:03.483Z,21.92
2022-08-29T10:42:06.087Z,21.73
2022-08-29T10:43:03.483Z,21.82
2022-08-29T10:44:03.545Z,21.89
2022-08-29T10:45:03.462Z,21.82
2022-08-29T10:46:03.516Z,22.02
2022-08-29T10:47:03.444Z,22.08
2022-08-29T10:48:03.428Z,22.23
2022-08-29T10:49:03.422Z,22.33
2022-08-29T10:50:03.447Z,22.41
2022-08-29T10:51:03.409Z,22.44
2022-08-29T10:52:03.440Z,22.54
2022-08-29T10:53:03.400Z,22.53
2022-08-29T10:54:05.967Z,22.60
2022-08-29T10:55:03.397Z,22.68
2022-08-29T10:56:06.853Z,22.75
2022-08-29T10:57:04.364Z,22.69
2022-08-29T10:58:05.042Z,22.75
2022-08-29T10:59:03.344Z,22.83
2022-08-29T11:00:03.347Z,22.68
2022-08-29T11:01:08.450Z,22.43
2022-08-29T11:02:05.329Z,22.28
2022-08-29T11:03:03.330Z,22.15
2022-08-29T11:04:03.968Z,22.08
2022-08-29T11:05:03.297Z,22.06
2022-08-29T11:06:03.293Z,22.13
2022-08-29T11:07:03.277Z,22.15
2022-08-29T11:08:03.267Z,22.23
2022-08-29T11:09:03.267Z,22.26
2022-08-29T11:10:03.345Z,22.39
2022-08-29T11:11:03.245Z,22.57
2022-08-29T11:12:03.235Z,22.51
2022-08-29T11:13:03.224Z,22.65
2022-08-29T11:14:05.747Z,22.55
2022-08-29T11:15:04.255Z,22.62
2022-08-29T11:16:03.270Z,22.65
2022-08-29T11:17:03.504Z,22.72
2022-08-29T11:18:03.193Z,22.90
2022-08-29T11:19:03.184Z,22.84
2022-08-29T11:20:03.186Z,22.65
2022-08-29T11:21:03.174Z,22.69
2022-08-29T11:22:03.188Z,22.62
2022-08-29T11:23:03.157Z,22.68
2022-08-29T11:24:04.050Z,22.76
2022-08-29T11:25:04.981Z,22.81
2022-08-29T11:26:03.138Z,22.85
2022-08-29T11:27:03.120Z,23.05
2022-08-29T11:28:03.121Z,22.99
2022-08-29T11:29:03.114Z,23.00
2022-08-29T11:30:03.179Z,23.17
2022-08-29T11:31:03.160Z,23.34
2022-08-29T11:32:03.103Z,23.27
2022-08-29T11:33:03.077Z,23.28
2022-08-29T11:34:03.125Z,23.27
2022-08-29T11:35:03.069Z,23.31
2022-08-29T11:36:05.041Z,23.23
2022-08-29T11:37:04.055Z,23.08
2022-08-29T11:38:03.038Z,23.09
2022-08-29T11:39:03.034Z,22.99
2022-08-29T11:40:03.060Z,22.75
2022-08-29T11:42:05.028Z,22.55
2022-08-29T11:43:03.002Z,22.50
2022-08-29T11:44:04.003Z,22.60
2022-08-29T11:45:02.993Z,22.65
2022-08-29T11:46:02.976Z,22.72
2022-08-29T11:47:03.062Z,22.99
2022-08-29T11:48:02.960Z,23.02
2022-08-29T11:49:02.994Z,23.10
2022-08-29T11:50:02.991Z,23.23
2022-08-29T11:51:02.936Z,23.39
2022-08-29T11:52:02.934Z,23.46
2022-08-29T11:53:02.918Z,23.51
2022-08-29T11:54:02.918Z,23.68
2022-08-29T11:55:03.516Z,23.59
2022-08-29T11:56:02.911Z,23.54
2022-08-29T11:57:02.892Z,23.44
2022-08-29T11:58:05.728Z,23.37
2022-08-29T11:59:03.900Z,23.12
2022-08-29T12:00:02.910Z,23.05
2022-08-29T12:01:02.854Z,23.06
2022-08-29T12:02:02.938Z,23.10
2022-08-29T12:03:07.284Z,23.06
2022-08-29T12:04:03.851Z,23.06
2022-08-29T12:05:02.861Z,23.08
2022-08-29T12:06:02.818Z,23.12
2022-08-29T12:07:02.809Z,23.03
2022-08-29T12:08:26.332Z,22.96
2022-08-29T12:09:07.136Z,22.98
2022-08-29T12:10:03.802Z,22.93
2022-08-29T12:11:02.786Z,22.94
2022-08-29T12:12:02.807Z,23.03
2022-08-29T12:13:02.768Z,23.03
2022-08-29T12:14:02.752Z,23.12
2022-08-29T12:15:02.764Z,23.23
2022-08-29T12:16:02.786Z,23.25
2022-08-29T12:17:02.761Z,23.40
2022-08-29T12:18:04.523Z,23.21
2022-08-29T12:19:03.759Z,23.03
2022-08-29T12:20:02.847Z,22.94
2022-08-29T12:21:03.506Z,22.93
2022-08-29T12:22:02.714Z,22.87
2022-08-29T12:23:02.692Z,22.85
2022-08-29T12:24:02.682Z,22.85
2022-08-29T12:25:02.713Z,22.84
2022-08-29T12:26:21.923Z,22.99
2022-08-29T12:27:04.655Z,23.02
2022-08-29T12:28:02.703Z,23.12
2022-08-29T12:29:02.634Z,23.12
2022-08-29T12:30:03.629Z,23.23
2022-08-29T12:31:02.643Z,23.28
2022-08-29T12:32:18.803Z,23.39
2022-08-29T12:33:04.612Z,23.41
2022-08-29T12:34:02.600Z,23.41
2022-08-29T12:35:02.615Z,23.48
2022-08-29T12:36:02.604Z,23.40
2022-08-29T12:37:02.591Z,23.48
2022-08-29T12:38:03.236Z,23.39
2022-08-29T12:39:03.505Z,23.28
2022-08-29T12:40:02.672Z,23.20
2022-08-29T12:41:02.552Z,23.10
2022-08-29T12:42:02.557Z,23.02
2022-08-29T12:43:02.536Z,22.94
2022-08-29T12:44:03.958Z,22.76
2022-08-29T12:45:02.531Z,22.76
2022-08-29T12:46:02.512Z,22.73
2022-08-29T12:47:02.702Z,22.81
2022-08-29T12:48:02.513Z,22.90
2022-08-29T12:49:02.490Z,23.12
2022-08-29T12:50:02.477Z,23.09
2022-08-29T12:51:02.462Z,22.99
2022-08-29T12:52:02.464Z,23.00
2022-08-29T12:53:02.460Z,22.85
2022-08-29T12:54:02.446Z,22.90
2022-08-29T12:55:03.020Z,22.93
2022-08-29T12:56:02.425Z,22.91